aviador You're here:

KMCJ Decoded Metar

in _UNIDENTIFIED
Report Time2018-04-24 14:35:00
UTC Time2018-04-24 14:33:40
Flight Rules vfr VFR
WindCalm
Visibility9999 m
Phenomena:N/A
Clouds:N/A
Expected CloudBase > 4,800 ft AGL from Temp-Dew spread
CeilingNone
Temp24°C (ISA +9)
Dew Point12°C (47% RH)
QNH1019 hPa
Density Alt1,309 ft
Elevation226 ft
Report Wrong Elevation
Raw Report
KMCJ 241435Z AUTO 00000KT 10SM CLR 24/12 A3009 RMK A01=

Extra information for KMCJ:More info

Metar Taf Metar & Taf Last 4 Metars F.Rules Stats Wind Profile Meteogram Temp Stats Metar ALERT Operation Metar Decoded Social comments